sensor_id;sensor_type;location;lat;lon;timestamp;P1;durP1;ratioP1;P2;durP2;ratioP2
65916;SDS011;77049;52.132;5.426;2024-03-17T00:00:31;19.50;;;11.07;;
65916;SDS011;77049;52.132;5.426;2024-03-17T00:02:57;17.88;;;10.25;;
65916;SDS011;77049;52.132;5.426;2024-03-17T00:05:23;19.90;;;10.43;;
65916;SDS011;77049;52.132;5.426;2024-03-17T00:07:48;22.90;;;10.38;;
65916;SDS011;77049;52.132;5.426;2024-03-17T00:10:14;22.45;;;10.20;;
65916;SDS011;77049;52.132;5.426;2024-03-17T00:12:40;16.02;;;10.38;;
65916;SDS011;77049;52.132;5.426;2024-03-17T00:15:06;22.77;;;10.80;;
65916;SDS011;77049;52.132;5.426;2024-03-17T00:17:33;17.85;;;10.20;;
65916;SDS011;77049;52.132;5.426;2024-03-17T00:20:00;18.60;;;10.00;;
65916;SDS011;77049;52.132;5.426;2024-03-17T00:22:37;21.00;;;10.10;;
65916;SDS011;77049;52.132;5.426;2024-03-17T00:25:05;18.65;;;9.38;;
65916;SDS011;77049;52.132;5.426;2024-03-17T00:27:32;21.05;;;9.93;;
65916;SDS011;77049;52.132;5.426;2024-03-17T00:29:58;17.50;;;9.93;;
65916;SDS011;77049;52.132;5.426;2024-03-17T00:32:24;17.98;;;9.85;;
65916;SDS011;77049;52.132;5.426;2024-03-17T00:34:50;26.25;;;9.95;;
65916;SDS011;77049;52.132;5.426;2024-03-17T00:37:16;21.63;;;9.45;;
65916;SDS011;77049;52.132;5.426;2024-03-17T00:39:41;15.68;;;9.18;;
65916;SDS011;77049;52.132;5.426;2024-03-17T00:42:07;18.25;;;9.98;;
65916;SDS011;77049;52.132;5.426;2024-03-17T00:44:32;19.42;;;9.35;;
65916;SDS011;77049;52.132;5.426;2024-03-17T00:46:58;15.57;;;9.63;;
65916;SDS011;77049;52.132;5.426;2024-03-17T00:49:24;15.95;;;9.55;;
65916;SDS011;77049;52.132;5.426;2024-03-17T00:51:50;14.40;;;8.75;;
65916;SDS011;77049;52.132;5.426;2024-03-17T00:54:16;20.75;;;9.10;;
65916;SDS011;77049;52.132;5.426;2024-03-17T00:56:43;22.05;;;9.20;;
65916;SDS011;77049;52.132;5.426;2024-03-17T00:59:09;12.00;;;8.32;;
65916;SDS011;77049;52.132;5.426;2024-03-17T01:01:34;16.75;;;8.68;;
65916;SDS011;77049;52.132;5.426;2024-03-17T01:04:00;12.02;;;8.10;;
65916;SDS011;77049;52.132;5.426;2024-03-17T01:06:26;11.85;;;7.97;;
65916;SDS011;77049;52.132;5.426;2024-03-17T01:08:52;16.33;;;8.23;;
65916;SDS011;77049;52.132;5.426;2024-03-17T01:11:17;19.60;;;8.73;;
65916;SDS011;77049;52.132;5.426;2024-03-17T01:13:45;15.48;;;8.02;;
65916;SDS011;77049;52.132;5.426;2024-03-17T01:16:12;15.05;;;8.07;;
65916;SDS011;77049;52.132;5.426;2024-03-17T01:18:38;15.48;;;8.38;;
65916;SDS011;77049;52.132;5.426;2024-03-17T01:21:05;20.75;;;8.85;;
65916;SDS011;77049;52.132;5.426;2024-03-17T01:23:32;12.98;;;7.82;;
65916;SDS011;77049;52.132;5.426;2024-03-17T01:25:58;18.80;;;8.68;;
65916;SDS011;77049;52.132;5.426;2024-03-17T01:28:23;15.85;;;8.50;;
65916;SDS011;77049;52.132;5.426;2024-03-17T01:30:49;15.90;;;8.70;;
65916;SDS011;77049;52.132;5.426;2024-03-17T01:33:15;11.45;;;8.40;;
65916;SDS011;77049;52.132;5.426;2024-03-17T01:35:43;17.27;;;8.57;;
65916;SDS011;77049;52.132;5.426;2024-03-17T01:38:09;12.23;;;7.93;;
65916;SDS011;77049;52.132;5.426;2024-03-17T01:40:38;17.73;;;8.43;;
65916;SDS011;77049;52.132;5.426;2024-03-17T01:43:04;13.35;;;7.97;;
65916;SDS011;77049;52.132;5.426;2024-03-17T01:45:30;16.23;;;8.18;;
65916;SDS011;77049;52.132;5.426;2024-03-17T01:47:57;17.35;;;8.48;;
65916;SDS011;77049;52.132;5.426;2024-03-17T01:50:31;12.50;;;8.10;;
65916;SDS011;77049;52.132;5.426;2024-03-17T01:53:01;18.10;;;8.38;;
65916;SDS011;77049;52.132;5.426;2024-03-17T01:55:33;13.20;;;8.25;;
65916;SDS011;77049;52.132;5.426;2024-03-17T01:58:03;14.65;;;9.25;;
65916;SDS011;77049;52.132;5.426;2024-03-17T02:00:32;12.55;;;8.80;;
65916;SDS011;77049;52.132;5.426;2024-03-17T02:03:05;15.82;;;8.55;;
65916;SDS011;77049;52.132;5.426;2024-03-17T02:05:32;15.55;;;8.73;;
65916;SDS011;77049;52.132;5.426;2024-03-17T02:07:59;14.10;;;8.93;;
65916;SDS011;77049;52.132;5.426;2024-03-17T02:10:25;15.32;;;9.05;;
65916;SDS011;77049;52.132;5.426;2024-03-17T02:12:51;16.58;;;9.18;;
65916;SDS011;77049;52.132;5.426;2024-03-17T02:15:17;13.77;;;9.10;;
65916;SDS011;77049;52.132;5.426;2024-03-17T02:17:43;20.45;;;8.88;;
65916;SDS011;77049;52.132;5.426;2024-03-17T02:20:09;11.77;;;8.90;;
65916;SDS011;77049;52.132;5.426;2024-03-17T02:22:37;12.50;;;8.70;;
65916;SDS011;77049;52.132;5.426;2024-03-17T02:25:03;16.08;;;9.85;;
65916;SDS011;77049;52.132;5.426;2024-03-17T02:27:29;12.95;;;9.30;;
65916;SDS011;77049;52.132;5.426;2024-03-17T02:29:55;14.60;;;9.43;;
65916;SDS011;77049;52.132;5.426;2024-03-17T02:32:20;15.65;;;9.48;;
65916;SDS011;77049;52.132;5.426;2024-03-17T02:34:48;14.32;;;9.45;;
65916;SDS011;77049;52.132;5.426;2024-03-17T02:37:13;13.57;;;9.40;;
65916;SDS011;77049;52.132;5.426;2024-03-17T02:39:39;17.40;;;9.60;;
65916;SDS011;77049;52.132;5.426;2024-03-17T02:42:06;16.38;;;9.10;;
65916;SDS011;77049;52.132;5.426;2024-03-17T02:44:33;15.25;;;9.05;;
65916;SDS011;77049;52.132;5.426;2024-03-17T02:47:00;15.63;;;10.07;;
65916;SDS011;77049;52.132;5.426;2024-03-17T02:49:27;18.23;;;9.55;;
65916;SDS011;77049;52.132;5.426;2024-03-17T02:52:00;17.70;;;9.07;;
65916;SDS011;77049;52.132;5.426;2024-03-17T02:54:26;13.20;;;9.15;;
65916;SDS011;77049;52.132;5.426;2024-03-17T02:56:52;22.23;;;10.00;;
65916;SDS011;77049;52.132;5.426;2024-03-17T02:59:18;15.50;;;8.98;;
65916;SDS011;77049;52.132;5.426;2024-03-17T03:01:43;13.30;;;8.77;;
65916;SDS011;77049;52.132;5.426;2024-03-17T03:04:10;13.93;;;9.77;;
65916;SDS011;77049;52.132;5.426;2024-03-17T03:06:36;18.63;;;9.30;;
65916;SDS011;77049;52.132;5.426;2024-03-17T03:09:03;13.85;;;9.07;;
65916;SDS011;77049;52.132;5.426;2024-03-17T03:11:30;12.45;;;8.65;;
65916;SDS011;77049;52.132;5.426;2024-03-17T03:13:56;17.00;;;9.23;;
65916;SDS011;77049;52.132;5.426;2024-03-17T03:16:22;14.02;;;8.38;;
65916;SDS011;77049;52.132;5.426;2024-03-17T03:18:50;17.02;;;8.93;;
65916;SDS011;77049;52.132;5.426;2024-03-17T03:21:15;13.30;;;8.75;;
65916;SDS011;77049;52.132;5.426;2024-03-17T03:23:42;14.00;;;8.38;;
65916;SDS011;77049;52.132;5.426;2024-03-17T03:26:10;18.45;;;8.70;;
65916;SDS011;77049;52.132;5.426;2024-03-17T03:28:35;12.88;;;8.40;;
65916;SDS011;77049;52.132;5.426;2024-03-17T03:31:01;13.18;;;8.43;;
65916;SDS011;77049;52.132;5.426;2024-03-17T03:33:27;11.75;;;8.70;;
65916;SDS011;77049;52.132;5.426;2024-03-17T03:35:53;12.85;;;8.38;;
65916;SDS011;77049;52.132;5.426;2024-03-17T03:38:20;11.63;;;8.60;;
65916;SDS011;77049;52.132;5.426;2024-03-17T03:40:47;12.77;;;9.10;;
65916;SDS011;77049;52.132;5.426;2024-03-17T03:43:13;12.82;;;9.15;;
65916;SDS011;77049;52.132;5.426;2024-03-17T03:45:39;15.27;;;8.75;;
65916;SDS011;77049;52.132;5.426;2024-03-17T03:48:05;15.50;;;8.88;;
65916;SDS011;77049;52.132;5.426;2024-03-17T03:50:34;13.07;;;8.70;;
65916;SDS011;77049;52.132;5.426;2024-03-17T03:53:00;9.65;;;7.82;;
65916;SDS011;77049;52.132;5.426;2024-03-17T03:55:26;12.68;;;8.25;;
65916;SDS011;77049;52.132;5.426;2024-03-17T03:57:51;11.48;;;8.07;;
65916;SDS011;77049;52.132;5.426;2024-03-17T04:00:20;14.43;;;8.57;;
65916;SDS011;77049;52.132;5.426;2024-03-17T04:02:50;12.68;;;8.73;;
65916;SDS011;77049;52.132;5.426;2024-03-17T04:05:17;11.80;;;8.27;;
65916;SDS011;77049;52.132;5.426;2024-03-17T04:07:45;10.05;;;8.25;;
65916;SDS011;77049;52.132;5.426;2024-03-17T04:10:12;12.65;;;8.32;;
65916;SDS011;77049;52.132;5.426;2024-03-17T04:12:39;10.35;;;7.85;;
65916;SDS011;77049;52.132;5.426;2024-03-17T04:15:05;11.73;;;8.27;;
65916;SDS011;77049;52.132;5.426;2024-03-17T04:17:31;18.00;;;8.77;;
65916;SDS011;77049;52.132;5.426;2024-03-17T04:19:58;11.73;;;8.93;;
65916;SDS011;77049;52.132;5.426;2024-03-17T04:22:24;11.73;;;8.25;;
65916;SDS011;77049;52.132;5.426;2024-03-17T04:24:50;13.13;;;8.35;;
65916;SDS011;77049;52.132;5.426;2024-03-17T04:27:22;11.23;;;8.32;;
65916;SDS011;77049;52.132;5.426;2024-03-17T04:29:52;11.10;;;8.77;;
65916;SDS011;77049;52.132;5.426;2024-03-17T04:32:22;13.02;;;8.00;;
65916;SDS011;77049;52.132;5.426;2024-03-17T04:34:48;15.77;;;8.57;;
65916;SDS011;77049;52.132;5.426;2024-03-17T04:37:14;13.13;;;8.65;;
65916;SDS011;77049;52.132;5.426;2024-03-17T04:39:40;14.07;;;9.50;;
65916;SDS011;77049;52.132;5.426;2024-03-17T04:42:08;12.98;;;8.10;;
65916;SDS011;77049;52.132;5.426;2024-03-17T04:44:37;15.13;;;8.43;;
65916;SDS011;77049;52.132;5.426;2024-03-17T04:47:03;11.65;;;8.75;;
65916;SDS011;77049;52.132;5.426;2024-03-17T04:49:35;10.93;;;7.72;;
65916;SDS011;77049;52.132;5.426;2024-03-17T04:52:11;10.15;;;7.47;;
65916;SDS011;77049;52.132;5.426;2024-03-17T04:54:37;11.45;;;8.40;;
65916;SDS011;77049;52.132;5.426;2024-03-17T04:57:02;14.40;;;9.40;;
65916;SDS011;77049;52.132;5.426;2024-03-17T04:59:29;12.48;;;8.35;;
65916;SDS011;77049;52.132;5.426;2024-03-17T05:01:55;17.25;;;8.98;;
65916;SDS011;77049;52.132;5.426;2024-03-17T05:04:21;14.52;;;9.00;;
65916;SDS011;77049;52.132;5.426;2024-03-17T05:06:50;11.93;;;9.30;;
65916;SDS011;77049;52.132;5.426;2024-03-17T05:09:16;12.80;;;9.27;;
65916;SDS011;77049;52.132;5.426;2024-03-17T05:11:42;16.33;;;9.13;;
65916;SDS011;77049;52.132;5.426;2024-03-17T05:14:08;13.40;;;9.40;;
65916;SDS011;77049;52.132;5.426;2024-03-17T05:16:34;17.05;;;9.48;;
65916;SDS011;77049;52.132;5.426;2024-03-17T05:19:00;14.38;;;9.60;;
65916;SDS011;77049;52.132;5.426;2024-03-17T05:21:26;14.90;;;8.88;;
65916;SDS011;77049;52.132;5.426;2024-03-17T05:23:55;14.38;;;9.93;;
65916;SDS011;77049;52.132;5.426;2024-03-17T05:26:22;12.38;;;9.88;;
65916;SDS011;77049;52.132;5.426;2024-03-17T05:28:47;14.20;;;9.75;;
65916;SDS011;77049;52.132;5.426;2024-03-17T05:31:13;12.32;;;10.05;;
65916;SDS011;77049;52.132;5.426;2024-03-17T05:33:40;11.82;;;10.07;;
65916;SDS011;77049;52.132;5.426;2024-03-17T05:36:06;14.20;;;9.63;;
65916;SDS011;77049;52.132;5.426;2024-03-17T05:38:32;13.95;;;9.93;;
65916;SDS011;77049;52.132;5.426;2024-03-17T05:43:25;14.63;;;9.98;;
65916;SDS011;77049;52.132;5.426;2024-03-17T05:45:52;16.38;;;9.95;;
65916;SDS011;77049;52.132;5.426;2024-03-17T05:48:26;14.80;;;10.35;;
65916;SDS011;77049;52.132;5.426;2024-03-17T05:50:52;13.73;;;10.00;;
65916;SDS011;77049;52.132;5.426;2024-03-17T05:53:19;16.67;;;10.10;;
65916;SDS011;77049;52.132;5.426;2024-03-17T05:55:51;12.73;;;10.20;;
65916;SDS011;77049;52.132;5.426;2024-03-17T05:58:16;13.10;;;10.25;;
65916;SDS011;77049;52.132;5.426;2024-03-17T06:00:42;15.05;;;10.05;;
65916;SDS011;77049;52.132;5.426;2024-03-17T06:03:09;15.75;;;9.75;;
65916;SDS011;77049;52.132;5.426;2024-03-17T06:05:39;16.45;;;10.50;;
65916;SDS011;77049;52.132;5.426;2024-03-17T06:08:08;11.55;;;9.90;;
65916;SDS011;77049;52.132;5.426;2024-03-17T06:10:34;13.98;;;10.20;;
65916;SDS011;77049;52.132;5.426;2024-03-17T06:13:04;12.80;;;9.95;;
65916;SDS011;77049;52.132;5.426;2024-03-17T06:15:30;13.25;;;10.20;;
65916;SDS011;77049;52.132;5.426;2024-03-17T06:17:56;12.98;;;9.32;;
65916;SDS011;77049;52.132;5.426;2024-03-17T06:20:25;12.38;;;9.68;;
65916;SDS011;77049;52.132;5.426;2024-03-17T06:22:54;12.73;;;10.13;;
65916;SDS011;77049;52.132;5.426;2024-03-17T06:25:20;13.70;;;10.27;;
65916;SDS011;77049;52.132;5.426;2024-03-17T06:27:52;14.00;;;9.30;;
65916;SDS011;77049;52.132;5.426;2024-03-17T06:30:18;11.40;;;9.25;;
65916;SDS011;77049;52.132;5.426;2024-03-17T06:32:44;13.38;;;9.65;;
65916;SDS011;77049;52.132;5.426;2024-03-17T06:35:11;14.73;;;10.40;;
65916;SDS011;77049;52.132;5.426;2024-03-17T06:37:37;11.70;;;8.98;;
65916;SDS011;77049;52.132;5.426;2024-03-17T06:40:04;14.25;;;9.20;;
65916;SDS011;77049;52.132;5.426;2024-03-17T06:42:31;13.15;;;9.73;;
65916;SDS011;77049;52.132;5.426;2024-03-17T06:44:56;11.40;;;9.13;;
65916;SDS011;77049;52.132;5.426;2024-03-17T06:47:23;15.10;;;9.98;;
65916;SDS011;77049;52.132;5.426;2024-03-17T06:49:49;12.13;;;9.60;;
65916;SDS011;77049;52.132;5.426;2024-03-17T06:52:14;12.38;;;9.00;;
65916;SDS011;77049;52.132;5.426;2024-03-17T06:54:40;13.00;;;10.02;;
65916;SDS011;77049;52.132;5.426;2024-03-17T06:57:06;12.95;;;9.43;;
65916;SDS011;77049;52.132;5.426;2024-03-17T06:59:35;14.23;;;10.20;;
65916;SDS011;77049;52.132;5.426;2024-03-17T07:02:00;13.32;;;9.63;;
65916;SDS011;77049;52.132;5.426;2024-03-17T07:04:26;12.07;;;9.65;;
65916;SDS011;77049;52.132;5.426;2024-03-17T07:06:52;13.05;;;9.85;;
65916;SDS011;77049;52.132;5.426;2024-03-17T07:09:17;12.77;;;10.48;;
65916;SDS011;77049;52.132;5.426;2024-03-17T07:11:43;11.45;;;9.93;;
65916;SDS011;77049;52.132;5.426;2024-03-17T07:14:10;14.40;;;9.88;;
65916;SDS011;77049;52.132;5.426;2024-03-17T07:16:36;16.30;;;9.52;;
65916;SDS011;77049;52.132;5.426;2024-03-17T07:19:02;13.23;;;9.85;;
65916;SDS011;77049;52.132;5.426;2024-03-17T07:21:28;19.05;;;10.32;;
65916;SDS011;77049;52.132;5.426;2024-03-17T07:23:53;11.00;;;9.82;;
65916;SDS011;77049;52.132;5.426;2024-03-17T07:26:19;12.77;;;9.80;;
65916;SDS011;77049;52.132;5.426;2024-03-17T07:28:45;12.48;;;9.70;;
65916;SDS011;77049;52.132;5.426;2024-03-17T07:31:10;12.27;;;9.32;;
65916;SDS011;77049;52.132;5.426;2024-03-17T07:33:36;11.65;;;9.10;;
65916;SDS011;77049;52.132;5.426;2024-03-17T07:36:02;10.25;;;9.20;;
65916;SDS011;77049;52.132;5.426;2024-03-17T07:38:30;11.98;;;9.20;;
65916;SDS011;77049;52.132;5.426;2024-03-17T07:40:56;11.90;;;8.98;;
65916;SDS011;77049;52.132;5.426;2024-03-17T07:43:27;9.83;;;8.37;;
65916;SDS011;77049;52.132;5.426;2024-03-17T07:46:00;10.90;;;9.00;;
65916;SDS011;77049;52.132;5.426;2024-03-17T07:48:27;11.60;;;8.95;;
65916;SDS011;77049;52.132;5.426;2024-03-17T07:50:57;11.75;;;8.98;;
65916;SDS011;77049;52.132;5.426;2024-03-17T07:53:26;15.07;;;9.23;;
65916;SDS011;77049;52.132;5.426;2024-03-17T07:58:49;13.48;;;8.80;;
65916;SDS011;77049;52.132;5.426;2024-03-17T08:01:16;13.60;;;9.20;;
65916;SDS011;77049;52.132;5.426;2024-03-17T08:03:44;14.02;;;8.68;;
65916;SDS011;77049;52.132;5.426;2024-03-17T08:06:11;14.63;;;9.38;;
65916;SDS011;77049;52.132;5.426;2024-03-17T08:08:37;9.88;;;8.88;;
65916;SDS011;77049;52.132;5.426;2024-03-17T08:11:03;9.98;;;8.75;;
65916;SDS011;77049;52.132;5.426;2024-03-17T08:13:29;9.93;;;8.60;;
65916;SDS011;77049;52.132;5.426;2024-03-17T08:16:03;10.85;;;8.55;;
65916;SDS011;77049;52.132;5.426;2024-03-17T08:18:36;9.93;;;8.57;;
65916;SDS011;77049;52.132;5.426;2024-03-17T08:21:02;13.27;;;8.80;;
65916;SDS011;77049;52.132;5.426;2024-03-17T08:23:31;15.32;;;9.02;;
65916;SDS011;77049;52.132;5.426;2024-03-17T08:25:59;10.10;;;8.18;;
65916;SDS011;77049;52.132;5.426;2024-03-17T08:28:26;9.43;;;8.38;;
65916;SDS011;77049;52.132;5.426;2024-03-17T08:30:53;11.35;;;8.80;;
65916;SDS011;77049;52.132;5.426;2024-03-17T08:33:20;14.63;;;8.43;;
65916;SDS011;77049;52.132;5.426;2024-03-17T08:35:56;12.50;;;9.00;;
65916;SDS011;77049;52.132;5.426;2024-03-17T08:38:34;10.02;;;8.60;;
65916;SDS011;77049;52.132;5.426;2024-03-17T08:41:10;9.85;;;8.85;;
65916;SDS011;77049;52.132;5.426;2024-03-17T08:43:36;13.80;;;9.55;;
65916;SDS011;77049;52.132;5.426;2024-03-17T08:48:31;13.20;;;8.73;;
65916;SDS011;77049;52.132;5.426;2024-03-17T08:51:01;10.05;;;8.82;;
65916;SDS011;77049;52.132;5.426;2024-03-17T08:53:28;10.77;;;8.80;;
65916;SDS011;77049;52.132;5.426;2024-03-17T08:55:54;11.60;;;8.27;;
65916;SDS011;77049;52.132;5.426;2024-03-17T08:58:20;12.50;;;9.00;;
65916;SDS011;77049;52.132;5.426;2024-03-17T09:00:46;12.13;;;8.57;;
65916;SDS011;77049;52.132;5.426;2024-03-17T09:03:12;10.00;;;8.68;;
65916;SDS011;77049;52.132;5.426;2024-03-17T09:05:38;11.27;;;9.27;;
65916;SDS011;77049;52.132;5.426;2024-03-17T09:08:05;11.52;;;8.63;;
65916;SDS011;77049;52.132;5.426;2024-03-17T09:10:40;11.65;;;8.70;;
65916;SDS011;77049;52.132;5.426;2024-03-17T09:13:06;11.05;;;8.85;;
65916;SDS011;77049;52.132;5.426;2024-03-17T09:15:32;9.30;;;8.07;;
65916;SDS011;77049;52.132;5.426;2024-03-17T09:17:58;9.48;;;8.48;;
65916;SDS011;77049;52.132;5.426;2024-03-17T09:20:24;12.75;;;8.85;;
65916;SDS011;77049;52.132;5.426;2024-03-17T09:22:49;15.38;;;9.25;;
65916;SDS011;77049;52.132;5.426;2024-03-17T09:25:15;9.57;;;8.50;;
65916;SDS011;77049;52.132;5.426;2024-03-17T09:27:41;15.57;;;9.43;;
65916;SDS011;77049;52.132;5.426;2024-03-17T09:30:06;12.10;;;8.90;;
65916;SDS011;77049;52.132;5.426;2024-03-17T09:32:38;10.18;;;7.93;;
65916;SDS011;77049;52.132;5.426;2024-03-17T09:35:04;12.45;;;8.75;;
65916;SDS011;77049;52.132;5.426;2024-03-17T09:37:30;12.35;;;8.27;;
65916;SDS011;77049;52.132;5.426;2024-03-17T09:40:00;11.55;;;8.43;;
65916;SDS011;77049;52.132;5.426;2024-03-17T09:42:26;9.77;;;8.73;;
65916;SDS011;77049;52.132;5.426;2024-03-17T09:44:55;14.82;;;8.77;;
65916;SDS011;77049;52.132;5.426;2024-03-17T09:47:22;9.90;;;8.80;;
65916;SDS011;77049;52.132;5.426;2024-03-17T09:49:48;10.43;;;8.43;;
65916;SDS011;77049;52.132;5.426;2024-03-17T09:55:00;9.75;;;7.80;;
65916;SDS011;77049;52.132;5.426;2024-03-17T09:57:35;9.02;;;8.05;;
65916;SDS011;77049;52.132;5.426;2024-03-17T10:00:20;11.57;;;8.48;;
65916;SDS011;77049;52.132;5.426;2024-03-17T10:02:47;12.32;;;8.38;;
65916;SDS011;77049;52.132;5.426;2024-03-17T10:05:20;10.43;;;7.95;;
65916;SDS011;77049;52.132;5.426;2024-03-17T10:07:50;10.50;;;8.80;;
65916;SDS011;77049;52.132;5.426;2024-03-17T10:10:20;12.25;;;8.23;;
65916;SDS011;77049;52.132;5.426;2024-03-17T10:12:50;12.25;;;8.38;;
65916;SDS011;77049;52.132;5.426;2024-03-17T10:15:16;9.38;;;7.55;;
65916;SDS011;77049;52.132;5.426;2024-03-17T10:17:43;9.52;;;8.60;;
65916;SDS011;77049;52.132;5.426;2024-03-17T10:20:21;10.45;;;8.40;;
65916;SDS011;77049;52.132;5.426;2024-03-17T10:22:57;12.30;;;8.20;;
65916;SDS011;77049;52.132;5.426;2024-03-17T10:25:30;8.75;;;7.90;;
65916;SDS011;77049;52.132;5.426;2024-03-17T10:27:57;9.35;;;8.07;;
65916;SDS011;77049;52.132;5.426;2024-03-17T10:30:24;9.25;;;7.80;;
65916;SDS011;77049;52.132;5.426;2024-03-17T10:32:58;11.05;;;8.43;;
65916;SDS011;77049;52.132;5.426;2024-03-17T10:38:01;8.75;;;7.93;;
65916;SDS011;77049;52.132;5.426;2024-03-17T10:40:29;10.73;;;8.27;;
65916;SDS011;77049;52.132;5.426;2024-03-17T10:42:56;9.25;;;7.28;;
65916;SDS011;77049;52.132;5.426;2024-03-17T10:45:25;11.00;;;8.15;;
65916;SDS011;77049;52.132;5.426;2024-03-17T10:47:51;9.60;;;7.78;;
65916;SDS011;77049;52.132;5.426;2024-03-17T10:50:21;8.82;;;7.47;;
65916;SDS011;77049;52.132;5.426;2024-03-17T10:55:25;9.88;;;7.55;;
65916;SDS011;77049;52.132;5.426;2024-03-17T10:57:52;8.38;;;7.18;;
65916;SDS011;77049;52.132;5.426;2024-03-17T11:00:21;8.65;;;7.75;;
65916;SDS011;77049;52.132;5.426;2024-03-17T11:02:48;10.80;;;7.82;;
65916;SDS011;77049;52.132;5.426;2024-03-17T11:05:25;8.52;;;7.57;;
65916;SDS011;77049;52.132;5.426;2024-03-17T11:07:56;8.27;;;7.15;;
65916;SDS011;77049;52.132;5.426;2024-03-17T11:10:34;10.63;;;8.05;;
65916;SDS011;77049;52.132;5.426;2024-03-17T11:13:01;7.68;;;6.80;;
65916;SDS011;77049;52.132;5.426;2024-03-17T11:20:36;10.13;;;7.60;;
65916;SDS011;77049;52.132;5.426;2024-03-17T11:23:05;8.23;;;7.37;;
65916;SDS011;77049;52.132;5.426;2024-03-17T11:38:53;7.57;;;6.78;;
65916;SDS011;77049;52.132;5.426;2024-03-17T11:47:01;9.07;;;7.20;;
65916;SDS011;77049;52.132;5.426;2024-03-17T11:52:11;11.35;;;6.85;;
65916;SDS011;77049;52.132;5.426;2024-03-17T11:54:39;12.90;;;7.03;;
65916;SDS011;77049;52.132;5.426;2024-03-17T11:57:10;8.73;;;7.93;;
65916;SDS011;77049;52.132;5.426;2024-03-17T11:59:37;8.00;;;7.20;;
65916;SDS011;77049;52.132;5.426;2024-03-17T12:02:37;12.82;;;7.22;;
65916;SDS011;77049;52.132;5.426;2024-03-17T12:04:57;9.82;;;7.60;;
65916;SDS011;77049;52.132;5.426;2024-03-17T12:07:24;8.35;;;7.57;;
65916;SDS011;77049;52.132;5.426;2024-03-17T12:09:51;8.70;;;7.35;;
65916;SDS011;77049;52.132;5.426;2024-03-17T12:12:20;8.95;;;7.57;;
65916;SDS011;77049;52.132;5.426;2024-03-17T12:14:47;7.68;;;6.97;;
65916;SDS011;77049;52.132;5.426;2024-03-17T12:17:15;7.88;;;6.82;;
65916;SDS011;77049;52.132;5.426;2024-03-17T12:22:17;10.48;;;7.38;;
65916;SDS011;77049;52.132;5.426;2024-03-17T12:24:50;8.10;;;7.30;;
65916;SDS011;77049;52.132;5.426;2024-03-17T12:27:19;8.27;;;7.35;;
65916;SDS011;77049;52.132;5.426;2024-03-17T12:29:47;8.13;;;6.40;;
65916;SDS011;77049;52.132;5.426;2024-03-17T12:32:14;7.78;;;6.93;;
65916;SDS011;77049;52.132;5.426;2024-03-17T12:34:42;9.88;;;7.32;;
65916;SDS011;77049;52.132;5.426;2024-03-17T12:37:11;9.35;;;7.50;;
65916;SDS011;77049;52.132;5.426;2024-03-17T12:39:41;13.15;;;7.47;;
65916;SDS011;77049;52.132;5.426;2024-03-17T12:42:08;12.13;;;7.22;;
65916;SDS011;77049;52.132;5.426;2024-03-17T12:44:35;7.82;;;7.13;;
65916;SDS011;77049;52.132;5.426;2024-03-17T12:49:50;11.68;;;7.70;;
65916;SDS011;77049;52.132;5.426;2024-03-17T13:00:46;8.10;;;6.85;;
65916;SDS011;77049;52.132;5.426;2024-03-17T13:03:23;10.85;;;7.72;;
65916;SDS011;77049;52.132;5.426;2024-03-17T13:05:50;8.75;;;7.85;;
65916;SDS011;77049;52.132;5.426;2024-03-17T13:08:16;9.60;;;7.53;;
65916;SDS011;77049;52.132;5.426;2024-03-17T13:10:43;10.95;;;7.25;;
65916;SDS011;77049;52.132;5.426;2024-03-17T13:13:09;9.88;;;7.60;;
65916;SDS011;77049;52.132;5.426;2024-03-17T13:15:36;9.73;;;7.88;;
65916;SDS011;77049;52.132;5.426;2024-03-17T13:18:02;9.30;;;7.53;;
65916;SDS011;77049;52.132;5.426;2024-03-17T13:20:29;12.52;;;7.82;;
65916;SDS011;77049;52.132;5.426;2024-03-17T13:22:56;8.38;;;7.63;;
65916;SDS011;77049;52.132;5.426;2024-03-17T13:25:25;8.50;;;7.72;;
65916;SDS011;77049;52.132;5.426;2024-03-17T13:27:55;9.68;;;7.57;;
65916;SDS011;77049;52.132;5.426;2024-03-17T13:30:22;9.50;;;7.60;;
65916;SDS011;77049;52.132;5.426;2024-03-17T13:32:52;8.27;;;7.47;;
65916;SDS011;77049;52.132;5.426;2024-03-17T13:35:23;8.25;;;7.45;;
65916;SDS011;77049;52.132;5.426;2024-03-17T13:37:54;8.55;;;7.28;;
65916;SDS011;77049;52.132;5.426;2024-03-17T13:40:21;15.38;;;8.25;;
65916;SDS011;77049;52.132;5.426;2024-03-17T13:42:49;8.40;;;7.60;;
65916;SDS011;77049;52.132;5.426;2024-03-17T13:45:16;9.20;;;8.40;;
65916;SDS011;77049;52.132;5.426;2024-03-17T13:48:03;8.93;;;7.80;;
65916;SDS011;77049;52.132;5.426;2024-03-17T13:50:29;8.90;;;7.95;;
65916;SDS011;77049;52.132;5.426;2024-03-17T13:52:55;9.15;;;7.53;;
65916;SDS011;77049;52.132;5.426;2024-03-17T13:55:22;8.43;;;7.38;;
65916;SDS011;77049;52.132;5.426;2024-03-17T13:57:54;10.65;;;8.30;;
65916;SDS011;77049;52.132;5.426;2024-03-17T14:00:25;9.38;;;8.38;;
65916;SDS011;77049;52.132;5.426;2024-03-17T14:02:53;8.57;;;7.70;;
65916;SDS011;77049;52.132;5.426;2024-03-17T14:05:20;9.23;;;7.97;;
65916;SDS011;77049;52.132;5.426;2024-03-17T14:07:47;9.60;;;7.75;;
65916;SDS011;77049;52.132;5.426;2024-03-17T14:10:16;9.73;;;7.82;;
65916;SDS011;77049;52.132;5.426;2024-03-17T14:12:43;9.07;;;7.80;;
65916;SDS011;77049;52.132;5.426;2024-03-17T14:15:09;9.35;;;7.47;;
65916;SDS011;77049;52.132;5.426;2024-03-17T14:17:40;11.90;;;8.85;;
65916;SDS011;77049;52.132;5.426;2024-03-17T14:20:06;12.02;;;8.07;;
65916;SDS011;77049;52.132;5.426;2024-03-17T14:22:35;10.57;;;8.00;;
65916;SDS011;77049;52.132;5.426;2024-03-17T14:25:05;16.02;;;8.57;;
65916;SDS011;77049;52.132;5.426;2024-03-17T14:27:32;9.30;;;8.40;;
65916;SDS011;77049;52.132;5.426;2024-03-17T14:29:57;8.88;;;7.75;;
65916;SDS011;77049;52.132;5.426;2024-03-17T14:32:23;8.70;;;7.82;;
65916;SDS011;77049;52.132;5.426;2024-03-17T14:34:49;10.48;;;8.00;;
65916;SDS011;77049;52.132;5.426;2024-03-17T14:37:14;9.07;;;8.02;;
65916;SDS011;77049;52.132;5.426;2024-03-17T14:39:40;8.57;;;7.70;;
65916;SDS011;77049;52.132;5.426;2024-03-17T14:42:06;8.60;;;7.45;;
65916;SDS011;77049;52.132;5.426;2024-03-17T14:44:34;8.93;;;7.40;;
65916;SDS011;77049;52.132;5.426;2024-03-17T14:47:00;9.05;;;8.15;;
65916;SDS011;77049;52.132;5.426;2024-03-17T14:49:27;8.32;;;7.53;;
65916;SDS011;77049;52.132;5.426;2024-03-17T14:51:53;13.75;;;7.85;;
65916;SDS011;77049;52.132;5.426;2024-03-17T14:54:19;8.38;;;7.57;;
65916;SDS011;77049;52.132;5.426;2024-03-17T14:56:45;11.13;;;7.25;;
65916;SDS011;77049;52.132;5.426;2024-03-17T14:59:11;10.32;;;7.40;;
65916;SDS011;77049;52.132;5.426;2024-03-17T15:01:37;9.35;;;6.68;;
65916;SDS011;77049;52.132;5.426;2024-03-17T15:04:03;7.95;;;6.85;;
65916;SDS011;77049;52.132;5.426;2024-03-17T15:06:28;10.38;;;7.20;;
65916;SDS011;77049;52.132;5.426;2024-03-17T15:08:54;10.93;;;7.07;;
65916;SDS011;77049;52.132;5.426;2024-03-17T15:11:20;11.05;;;7.00;;
65916;SDS011;77049;52.132;5.426;2024-03-17T15:13:45;9.10;;;7.30;;
65916;SDS011;77049;52.132;5.426;2024-03-17T15:16:11;10.25;;;6.88;;
65916;SDS011;77049;52.132;5.426;2024-03-17T15:18:40;8.40;;;7.38;;
65916;SDS011;77049;52.132;5.426;2024-03-17T15:21:06;9.82;;;7.45;;
65916;SDS011;77049;52.132;5.426;2024-03-17T15:23:32;9.45;;;7.60;;
65916;SDS011;77049;52.132;5.426;2024-03-17T15:25:58;7.40;;;6.70;;
65916;SDS011;77049;52.132;5.426;2024-03-17T15:28:43;10.35;;;7.35;;
65916;SDS011;77049;52.132;5.426;2024-03-17T15:31:10;9.93;;;7.40;;
65916;SDS011;77049;52.132;5.426;2024-03-17T15:33:38;7.78;;;7.13;;